Time;durP1;ratioP1;P1;durP2;ratioP2;P2;SDS_P1;SDS_P2;PMS_P1;PMS_P2;Temp;Humidity;BMP_temperature;BMP_pressure;BME280_temperature;BME280_humidity;BME280_pressure;Samples;Min_cycle;Max_cycle;Signal;HPM_P1;HPM_P2
2023/03/07 00:02:23;;;;;;;5.80;5.07;;;;;;;13.18;47.10;93830.59;4989438;28;20205;-49
2023/03/07 00:04:50;;;;;;;5.77;5.07;;;;;;;13.18;47.11;93822.91;4989862;28;20193;-48
2023/03/07 00:07:17;;;;;;;6.33;4.90;;;;;;;13.19;47.18;93823.69;4988930;28;20204;-47
2023/03/07 00:09:44;;;;;;;5.90;4.90;;;;;;;13.19;47.62;93823.69;4989321;28;20569;-49
2023/03/07 00:12:12;;;;;;;7.57;5.17;;;;;;;13.19;47.20;93827.06;4988688;28;20192;-50
2023/03/07 00:14:39;;;;;;;5.60;4.63;;;;;;;13.20;47.19;93815.03;4990007;28;20259;-52
2023/03/07 00:17:06;;;;;;;7.63;5.00;;;;;;;13.21;47.21;93816.59;4989191;28;20565;-49
2023/03/07 00:19:34;;;;;;;6.37;4.80;;;;;;;13.22;47.54;93808.78;4989711;28;20673;-50
2023/03/07 00:22:02;;;;;;;6.33;5.13;;;;;;;13.25;47.27;93807.63;4989499;28;20258;-53
2023/03/07 00:24:29;;;;;;;6.07;5.27;;;;;;;13.25;47.35;93805.03;4992023;28;20224;-47
2023/03/07 00:26:56;;;;;;;7.00;4.67;;;;;;;13.28;47.12;93800.38;4993035;28;20201;-46
2023/03/07 00:29:24;;;;;;;5.50;4.80;;;;;;;13.30;47.34;93795.06;4993166;28;20189;-48
2023/03/07 00:31:51;;;;;;;5.40;4.90;;;;;;;13.32;47.17;93792.31;4993011;28;20240;-46
2023/03/07 00:34:18;;;;;;;6.13;4.30;;;;;;;13.34;47.21;93785.22;4992387;28;20670;-47
2023/03/07 00:36:44;;;;;;;7.10;5.03;;;;;;;13.36;47.35;93788.44;4992457;28;20193;-47
2023/03/07 00:39:12;;;;;;;6.60;4.83;;;;;;;13.39;47.02;93798.34;4992384;28;20228;-50
2023/03/07 00:41:38;;;;;;;7.00;5.27;;;;;;;13.39;47.36;93803.50;4992533;28;20244;-51
2023/03/07 00:44:06;;;;;;;5.53;4.73;;;;;;;13.41;47.26;93798.97;4992366;28;20267;-49
2023/03/07 00:46:34;;;;;;;5.00;4.40;;;;;;;13.42;47.26;93800.53;4992820;28;20192;-50
2023/03/07 00:49:01;;;;;;;6.27;4.73;;;;;;;13.46;47.08;93805.16;4992084;28;20196;-48
2023/03/07 00:51:27;;;;;;;5.63;4.60;;;;;;;13.46;47.18;93807.72;4992548;28;20637;-48
2023/03/07 00:53:55;;;;;;;5.30;4.50;;;;;;;13.48;47.05;93792.16;4990678;28;20689;-50
2023/03/07 00:56:23;;;;;;;6.57;4.50;;;;;;;13.50;47.07;93801.25;4991730;28;20232;-51
2023/03/07 00:58:51;;;;;;;4.90;4.27;;;;;;;13.51;46.99;93809.75;4992106;28;20642;-50
2023/03/07 01:01:20;;;;;;;4.87;3.90;;;;;;;13.51;46.95;93809.75;4992338;28;20283;-53
2023/03/07 01:03:52;;;;;;;5.73;4.20;;;;;;;13.52;47.04;93801.09;4973019;28;20813;-52
2023/03/07 01:06:20;;;;;;;4.47;4.07;;;;;;;13.54;46.99;93802.50;4972976;28;20682;-50
2023/03/07 01:08:47;;;;;;;5.73;4.13;;;;;;;13.54;47.14;93804.28;4972713;28;20208;-48
2023/03/07 01:11:14;;;;;;;5.10;4.60;;;;;;;13.54;47.20;93814.53;4984974;28;20189;-51
2023/03/07 01:13:41;;;;;;;5.80;4.70;;;;;;;13.49;47.01;93798.88;4992281;28;20189;-54
2023/03/07 01:16:10;;;;;;;6.80;4.80;;;;;;;13.48;47.18;93782.66;4991576;28;20204;-49
2023/03/07 01:18:37;;;;;;;6.50;4.80;;;;;;;13.45;47.22;93783.00;4991841;28;20196;-47
2023/03/07 01:21:13;;;;;;;5.63;5.03;;;;;;;13.43;47.32;93755.94;4991747;28;20260;-55
2023/03/07 01:23:39;;;;;;;6.73;5.03;;;;;;;13.38;47.41;93761.56;4991787;28;20197;-50
2023/03/07 01:26:06;;;;;;;6.33;5.40;;;;;;;13.38;47.41;93763.34;4991147;28;20204;-46
2023/03/07 01:28:33;;;;;;;6.50;5.30;;;;;;;13.37;47.29;93761.75;4991611;28;20189;-47
2023/03/07 01:31:00;;;;;;;8.57;5.30;;;;;;;13.37;47.36;93762.56;4991486;28;20185;-50
2023/03/07 01:33:27;;;;;;;11.10;5.37;;;;;;;13.34;47.50;93767.25;4991729;28;20193;-49
2023/03/07 01:35:53;;;;;;;5.80;5.03;;;;;;;13.29;47.49;93752.38;4990600;28;20193;-50
2023/03/07 01:38:22;;;;;;;8.27;5.20;;;;;;;13.33;47.50;93760.53;4991456;28;20289;-52
2023/03/07 01:40:49;;;;;;;5.87;4.93;;;;;;;13.30;47.58;93759.91;4991111;28;20222;-48
2023/03/07 01:43:25;;;;;;;7.17;5.83;;;;;;;13.27;47.67;93762.03;4991330;28;20752;-49
2023/03/07 01:46:51;;;;;;;6.70;5.17;;;;;;;13.23;47.78;93766.72;4991378;28;20200;-48
2023/03/07 01:49:29;;;;;;;6.77;5.77;;;;;;;13.17;47.66;93764.84;4991276;28;20189;-49
2023/03/07 01:52:01;;;;;;;7.93;5.50;;;;;;;13.15;47.81;93765.97;4991329;28;20402;-54
2023/03/07 01:54:31;;;;;;;7.57;6.20;;;;;;;13.11;48.23;93767.31;4990875;28;20316;-49
2023/03/07 01:56:58;;;;;;;7.77;5.50;;;;;;;13.07;47.97;93775.34;4991281;28;20193;-49
2023/03/07 01:59:31;;;;;;;9.23;6.07;;;;;;;13.05;48.19;93772.16;4991237;28;20192;-46
2023/03/07 02:02:03;;;;;;;9.30;5.57;;;;;;;13.01;48.24;93765.78;4991373;28;20223;-46
2023/03/07 02:04:36;;;;;;;9.60;5.97;;;;;;;12.98;48.38;93778.16;4990700;28;20188;-50
2023/03/07 02:07:04;;;;;;;7.57;6.03;;;;;;;12.96;48.14;93769.88;4991175;28;20192;-49
2023/03/07 02:09:33;;;;;;;8.03;5.80;;;;;;;12.94;48.24;93764.09;4990409;28;20234;-51
2023/03/07 02:12:01;;;;;;;8.67;5.70;;;;;;;12.89;48.32;93759.47;4990975;28;20666;-52
2023/03/07 02:14:28;;;;;;;7.83;6.10;;;;;;;12.89;48.43;93766.38;4990348;28;20255;-46
2023/03/07 02:16:55;;;;;;;7.33;6.17;;;;;;;12.87;48.31;93776.03;4991113;28;20188;-52
2023/03/07 02:19:36;;;;;;;7.37;5.70;;;;;;;12.84;48.40;93758.44;4990509;28;20256;-45
2023/03/07 02:22:09;;;;;;;8.10;5.40;;;;;;;12.81;48.35;93762.91;4990944;28;20252;-48
2023/03/07 02:24:45;;;;;;;7.97;6.47;;;;;;;12.83;48.50;93764.53;4990947;28;20197;-47
2023/03/07 02:27:14;;;;;;;7.77;6.10;;;;;;;12.79;48.52;93756.38;4990640;28;20239;-47
2023/03/07 02:29:40;;;;;;;7.40;5.53;;;;;;;12.77;48.57;93753.19;4990384;28;20189;-45
2023/03/07 02:32:08;;;;;;;7.67;5.50;;;;;;;12.77;48.47;93755.75;4990690;28;20595;-47
2023/03/07 02:34:35;;;;;;;7.70;6.10;;;;;;;12.77;48.50;93758.31;4990577;28;20212;-47
2023/03/07 02:37:05;;;;;;;8.70;5.70;;;;;;;12.74;48.36;93751.78;4990426;28;20594;-50
2023/03/07 02:39:32;;;;;;;7.13;5.47;;;;;;;12.71;48.48;93757.25;4989879;28;20669;-46
2023/03/07 02:42:04;;;;;;;6.70;5.33;;;;;;;12.75;48.50;93767.97;4990409;28;20212;-46
2023/03/07 02:44:32;;;;;;;10.30;6.33;;;;;;;12.74;48.64;93767.16;4990115;28;20197;-46
2023/03/07 02:46:59;;;;;;;7.50;5.63;;;;;;;12.74;48.53;93768.94;4989921;28;20189;-46
2023/03/07 02:49:26;;;;;;;6.60;5.93;;;;;;;12.73;48.52;93762.97;4989852;28;20189;-45
2023/03/07 02:51:56;;;;;;;8.37;5.73;;;;;;;12.72;48.73;93768.28;4989859;28;20644;-45
2023/03/07 02:54:23;;;;;;;8.63;6.57;;;;;;;12.69;48.27;93760.94;4989299;28;20640;-55
2023/03/07 02:56:50;;;;;;;6.87;5.83;;;;;;;12.71;48.75;93769.28;4989848;28;20633;-49
2023/03/07 02:59:17;;;;;;;7.13;5.90;;;;;;;12.70;48.67;93765.13;4990191;28;20193;-48
2023/03/07 03:01:45;;;;;;;8.13;5.87;;;;;;;12.68;48.79;93767.84;4990192;28;20220;-48
2023/03/07 03:04:12;;;;;;;8.50;6.00;;;;;;;12.68;48.84;93765.28;4989653;28;20228;-46
2023/03/07 03:06:39;;;;;;;6.47;5.53;;;;;;;12.68;48.50;93765.28;4989871;28;20193;-46
2023/03/07 03:09:06;;;;;;;8.20;5.57;;;;;;;12.66;48.70;93767.22;4989796;28;20204;-46
2023/03/07 03:11:32;;;;;;;7.60;5.37;;;;;;;12.68;48.68;93765.28;4989347;28;20192;-48
2023/03/07 03:13:59;;;;;;;9.93;5.80;;;;;;;12.68;48.85;93765.28;4990056;28;20197;-48
2023/03/07 03:16:26;;;;;;;7.80;6.13;;;;;;;12.59;48.72;93748.38;4989714;28;20256;-48
2023/03/07 03:18:54;;;;;;;9.57;5.70;;;;;;;12.67;48.73;93761.13;4989890;28;20193;-52
2023/03/07 03:21:21;;;;;;;7.70;5.70;;;;;;;12.66;48.62;93759.53;4989518;28;20188;-49
2023/03/07 03:23:48;;;;;;;6.57;5.67;;;;;;;12.66;48.76;93758.75;4989592;28;20680;-47
2023/03/07 03:26:14;;;;;;;7.37;5.83;;;;;;;12.65;48.91;93765.66;4989618;28;20185;-47
2023/03/07 03:28:41;;;;;;;7.53;5.43;;;;;;;12.63;48.55;93761.66;4989894;28;20193;-46
2023/03/07 03:31:10;;;;;;;7.10;5.20;;;;;;;12.65;49.07;93759.69;4989440;28;20203;-49
2023/03/07 03:33:38;;;;;;;7.73;5.87;;;;;;;12.65;48.78;93757.13;4989651;28;20200;-47
2023/03/07 03:36:09;;;;;;;9.20;5.47;;;;;;;12.65;48.93;93757.13;4989678;28;20204;-49
2023/03/07 03:38:36;;;;;;;8.80;5.30;;;;;;;12.65;48.95;93757.13;4989560;28;20196;-51
2023/03/07 03:41:05;;;;;;;7.70;5.37;;;;;;;12.66;48.99;93766.44;4989468;28;20189;-47
2023/03/07 03:43:32;;;;;;;7.47;6.07;;;;;;;12.62;48.80;93773.69;4989867;28;20320;-46
2023/03/07 03:45:59;;;;;;;6.73;5.70;;;;;;;12.64;48.90;93771.72;4989432;28;20196;-49
2023/03/07 03:48:26;;;;;;;11.07;5.70;;;;;;;12.65;48.87;93767.38;4989845;28;20205;-50
2023/03/07 03:51:00;;;;;;;8.13;6.07;;;;;;;12.65;49.10;93772.50;4989631;28;20233;-50
2023/03/07 03:53:30;;;;;;;7.47;5.40;;;;;;;12.62;49.19;93773.69;4989534;28;20270;-49
2023/03/07 03:56:04;;;;;;;10.67;6.30;;;;;;;12.58;49.03;93766.50;4989723;28;20224;-53
2023/03/07 03:58:32;;;;;;;5.97;5.17;;;;;;;12.62;49.13;93791.63;4990754;28;20203;-53
2023/03/07 04:01:00;;;;;;;14.17;6.23;;;;;;;12.62;49.02;93780.56;4993930;28;20324;-46
2023/03/07 04:03:27;;;;;;;8.53;6.13;;;;;;;12.62;49.19;93771.13;4993124;28;20221;-55
2023/03/07 04:05:54;;;;;;;6.70;5.63;;;;;;;12.59;49.25;93768.09;4993620;28;20251;-48
2023/03/07 04:08:21;;;;;;;10.13;5.93;;;;;;;12.59;49.42;93771.44;4992747;28;20186;-49
2023/03/07 04:10:49;;;;;;;7.57;5.30;;;;;;;12.61;49.38;93771.25;4993314;28;20239;-50
2023/03/07 04:13:16;;;;;;;8.03;5.93;;;;;;;12.61;49.31;93773.81;4993215;28;20189;-52
2023/03/07 04:15:43;;;;;;;7.80;6.10;;;;;;;12.60;49.37;93769.69;4993267;28;20200;-52
2023/03/07 04:18:10;;;;;;;6.17;5.07;;;;;;;12.61;49.34;93768.69;4992861;28;20243;-56
2023/03/07 04:20:37;;;;;;;6.40;5.67;;;;;;;12.60;49.27;93769.69;4993263;28;20185;-51
2023/03/07 04:23:03;;;;;;;7.03;6.33;;;;;;;12.63;49.36;93777.03;4993071;28;20228;-52
2023/03/07 04:25:30;;;;;;;8.43;5.80;;;;;;;12.64;49.44;93778.63;4992932;28;20193;-51
2023/03/07 04:27:58;;;;;;;7.17;5.53;;;;;;;12.62;49.48;93780.56;4992779;28;20193;-54
2023/03/07 04:30:26;;;;;;;9.67;6.20;;;;;;;12.63;49.42;93785.53;4993081;28;20642;-49
2023/03/07 04:32:53;;;;;;;9.10;6.43;;;;;;;12.64;49.47;93794.81;4992957;28;20200;-47
2023/03/07 04:35:26;;;;;;;8.27;6.03;;;;;;;12.65;49.46;93795.59;4993270;28;20201;-47
2023/03/07 04:37:53;;;;;;;7.20;6.13;;;;;;;12.63;49.63;93782.97;4992439;28;20201;-54
2023/03/07 04:40:21;;;;;;;7.27;5.83;;;;;;;12.63;49.60;93789.84;4993347;28;20196;-53
2023/03/07 04:42:49;;;;;;;10.03;6.40;;;;;;;12.62;49.65;93799.31;4993444;28;20224;-49
2023/03/07 04:45:25;;;;;;;8.43;5.73;;;;;;;12.60;49.49;93795.31;4993410;28;20202;-47
2023/03/07 04:47:55;;;;;;;7.00;6.00;;;;;;;12.59;49.61;93799.66;4992975;28;20666;-48
2023/03/07 04:50:38;;;;;;;7.93;5.90;;;;;;;12.58;49.75;93797.28;4993639;28;20217;-53
2023/03/07 04:53:06;;;;;;;6.97;5.53;;;;;;;12.60;49.52;93796.13;4992835;28;20201;-47
2023/03/07 04:55:32;;;;;;;7.37;5.43;;;;;;;12.58;49.79;93799.84;4992177;28;21056;-48
2023/03/07 04:57:59;;;;;;;9.07;5.80;;;;;;;12.61;49.72;93797.75;4992132;28;20540;-49
2023/03/07 05:00:27;;;;;;;9.73;5.70;;;;;;;12.63;49.65;93798.34;4992851;28;20185;-48
2023/03/07 05:02:57;;;;;;;7.43;5.97;;;;;;;12.65;49.48;93788.72;4992243;28;20221;-52
2023/03/07 05:05:24;;;;;;;7.70;6.13;;;;;;;12.67;49.57;93788.53;4992263;28;20525;-49
2023/03/07 05:07:50;;;;;;;7.37;5.90;;;;;;;12.66;49.94;93790.31;4986495;28;20197;-52
2023/03/07 05:10:17;;;;;;;8.73;5.83;;;;;;;12.69;49.47;93789.94;4991878;28;20205;-50
2023/03/07 05:12:44;;;;;;;7.00;5.63;;;;;;;12.71;49.61;93798.28;4992308;28;20189;-48
2023/03/07 05:15:11;;;;;;;7.43;5.23;;;;;;;12.75;49.64;93804.66;4992193;28;20248;-52
2023/03/07 05:17:39;;;;;;;9.83;6.10;;;;;;;12.75;49.62;93794.41;4992012;28;20177;-48
2023/03/07 05:20:09;;;;;;;9.50;3.73;;;;;;;13.46;85.39;93796.66;4991760;28;20178;-46
2023/03/07 05:22:36;;;;;;;5.97;3.40;;;;;;;14.28;82.24;93802.38;4991640;28;20236;-48
2023/03/07 05:25:03;;;;;;;4.33;3.43;;;;;;;15.04;79.26;93797.56;4991936;28;20212;-47
2023/03/07 05:27:29;;;;;;;9.13;3.70;;;;;;;15.69;75.67;93792.22;4992083;28;20200;-47
2023/03/07 05:29:56;;;;;;;5.13;3.40;;;;;;;16.27;73.75;93800.38;4991895;28;20193;-49
2023/03/07 05:32:23;;;;;;;5.47;3.50;;;;;;;16.75;71.62;93798.53;4991698;28;20201;-51
2023/03/07 05:34:51;;;;;;;7.70;4.13;;;;;;;16.99;69.06;93797.13;4991623;28;20216;-50
2023/03/07 05:37:18;;;;;;;7.73;4.00;;;;;;;16.92;66.22;93806.66;4991434;28;20197;-51
2023/03/07 05:39:45;;;;;;;7.07;4.37;;;;;;;16.75;63.59;93802.88;4982972;28;20197;-49
2023/03/07 05:42:12;;;;;;;5.27;4.23;;;;;;;16.59;62.23;93811.00;4973384;28;20593;-47
2023/03/07 05:44:39;;;;;;;7.47;5.00;;;;;;;16.42;61.83;93826.03;4989511;28;20197;-49
2023/03/07 05:47:05;;;;;;;6.73;4.57;;;;;;;16.24;61.16;93819.63;4988691;28;20675;-47
2023/03/07 05:49:32;;;;;;;6.97;4.93;;;;;;;16.09;60.57;93818.19;4989239;28;20196;-49
2023/03/07 05:52:00;;;;;;;7.47;5.13;;;;;;;15.93;59.77;93827.84;4988686;28;20197;-48
2023/03/07 05:54:27;;;;;;;8.23;5.37;;;;;;;15.76;59.23;93826.59;4989070;28;20240;-48
2023/03/07 05:56:54;;;;;;;7.57;5.70;;;;;;;15.60;58.86;93824.28;4988612;28;20186;-48
2023/03/07 05:59:21;;;;;;;9.73;5.73;;;;;;;15.49;58.44;93828.94;4989078;28;20189;-46
2023/03/07 06:01:47;;;;;;;7.23;5.70;;;;;;;15.39;58.09;93832.84;4988204;28;20196;-45
2023/03/07 06:04:14;;;;;;;7.17;6.13;;;;;;;15.31;57.69;93836.38;4988145;28;20213;-47
2023/03/07 06:06:41;;;;;;;8.80;6.10;;;;;;;15.23;57.49;93826.19;4988094;28;20255;-47
2023/03/07 06:09:09;;;;;;;9.10;5.73;;;;;;;15.16;57.10;93825.38;4988869;28;20200;-47
2023/03/07 06:11:36;;;;;;;7.43;6.07;;;;;;;15.12;56.74;93837.81;4988898;28;20204;-48
2023/03/07 06:14:03;;;;;;;10.30;6.00;;;;;;;15.09;56.42;93830.47;4988819;28;20236;-47
2023/03/07 06:16:30;;;;;;;11.00;5.90;;;;;;;15.11;56.12;93828.50;4988314;28;20200;-49
2023/03/07 06:18:56;;;;;;;12.20;6.57;;;;;;;15.16;55.73;93822.81;4978483;28;20680;-48
2023/03/07 06:21:23;;;;;;;7.97;6.20;;;;;;;15.26;55.54;93831.00;4986949;28;20204;-48
2023/03/07 06:23:50;;;;;;;10.90;6.20;;;;;;;15.41;55.13;93831.66;4986921;28;20224;-46
2023/03/07 06:26:18;;;;;;;8.13;5.60;;;;;;;15.50;54.78;93817.69;4987365;28;20662;-46
2023/03/07 06:28:45;;;;;;;8.07;6.37;;;;;;;15.61;54.53;93836.97;4986841;28;20654;-46
2023/03/07 06:31:14;;;;;;;6.83;6.13;;;;;;;15.70;54.26;93841.00;4987082;28;20255;-46
2023/03/07 06:33:41;;;;;;;9.03;5.97;;;;;;;15.75;54.04;93841.22;4986661;28;20199;-48
2023/03/07 06:36:10;;;;;;;7.67;6.30;;;;;;;15.80;53.70;93845.81;4987127;28;20197;-49
2023/03/07 06:38:38;;;;;;;10.50;6.50;;;;;;;15.81;53.57;93844.84;4989635;28;20272;-54
2023/03/07 06:41:05;;;;;;;9.70;7.27;;;;;;;15.80;53.22;93833.75;4989399;28;20208;-47
2023/03/07 06:43:34;;;;;;;14.23;7.00;;;;;;;15.67;53.12;93825.94;4989639;28;20223;-46
2023/03/07 06:46:01;;;;;;;7.47;5.90;;;;;;;15.82;52.99;93851.59;4989817;28;20193;-54
2023/03/07 06:48:28;;;;;;;7.83;6.60;;;;;;;15.80;52.58;93862.09;4989126;28;20189;-51
2023/03/07 06:50:55;;;;;;;9.10;6.20;;;;;;;15.83;52.57;93855.75;4989527;28;20200;-54
2023/03/07 06:53:21;;;;;;;9.10;6.27;;;;;;;15.88;52.41;93860.34;4989943;28;20193;-50
2023/03/07 06:55:49;;;;;;;16.97;6.83;;;;;;;15.96;52.32;93844.72;4989367;28;20320;-51
2023/03/07 06:58:16;;;;;;;10.10;7.00;;;;;;;16.04;51.99;93854.88;4989146;28;20314;-48
2023/03/07 07:00:45;;;;;;;7.60;6.00;;;;;;;16.13;51.86;93852.91;4988811;28;20208;-49
2023/03/07 07:03:12;;;;;;;9.60;7.00;;;;;;;16.24;51.51;93849.81;4988212;28;20641;-49
2023/03/07 07:05:39;;;;;;;11.07;6.63;;;;;;;16.36;51.36;93850.03;4986208;28;20185;-48
2023/03/07 07:08:06;;;;;;;9.13;6.40;;;;;;;16.40;51.23;93836.53;4989465;28;20227;-50
2023/03/07 07:10:33;;;;;;;8.33;6.60;;;;;;;16.65;50.97;93857.44;4989027;28;20200;-47
2023/03/07 07:13:00;;;;;;;7.80;5.93;;;;;;;16.76;50.83;93845.81;4988825;28;20580;-51
2023/03/07 07:15:27;;;;;;;9.97;7.00;;;;;;;16.84;50.80;93850.78;4989421;28;20185;-47
2023/03/07 07:17:55;;;;;;;9.77;6.90;;;;;;;16.92;50.45;93853.16;4985317;28;20181;-50
2023/03/07 07:20:22;;;;;;;9.03;6.23;;;;;;;17.00;50.32;93855.53;4987643;28;20197;-49
2023/03/07 07:22:49;;;;;;;7.97;5.93;;;;;;;17.15;50.03;93844.25;4988776;28;20192;-51
2023/03/07 07:25:16;;;;;;;11.83;6.23;;;;;;;17.34;49.94;93848.59;4988277;28;20673;-47
2023/03/07 07:27:43;;;;;;;8.03;6.27;;;;;;;17.47;49.72;93850.38;4988335;28;20538;-47
2023/03/07 07:30:12;;;;;;;8.13;6.63;;;;;;;17.56;49.54;93851.75;4989240;28;20185;-48
2023/03/07 07:32:39;;;;;;;7.70;6.27;;;;;;;17.73;49.26;93867.66;4988182;28;20193;-49
2023/03/07 07:35:08;;;;;;;8.77;6.00;;;;;;;17.87;49.13;93858.91;4988665;28;20203;-50
2023/03/07 07:37:35;;;;;;;10.93;6.50;;;;;;;18.00;48.98;93861.47;4989143;28;20200;-49
2023/03/07 07:40:03;;;;;;;7.20;5.70;;;;;;;18.18;48.80;93866.00;4989148;28;20212;-49
2023/03/07 07:42:30;;;;;;;12.57;6.73;;;;;;;18.35;48.49;93866.31;4988978;28;20204;-48
2023/03/07 07:44:57;;;;;;;9.27;6.57;;;;;;;18.51;48.50;93859.88;4989297;28;20216;-49
2023/03/07 07:47:25;;;;;;;8.13;6.13;;;;;;;18.64;48.16;93864.97;4988762;28;20671;-51
2023/03/07 07:49:52;;;;;;;9.23;6.20;;;;;;;18.79;48.15;93877.69;4989298;28;20212;-49
2023/03/07 07:52:20;;;;;;;9.93;6.00;;;;;;;19.05;47.74;93861.97;4987202;28;20185;-54
2023/03/07 07:54:47;;;;;;;8.93;5.83;;;;;;;19.47;47.62;93858.84;4989146;28;20719;-54
2023/03/07 07:57:14;;;;;;;9.97;6.37;;;;;;;20.00;47.48;93866.97;4988364;28;20197;-49
2023/03/07 07:59:40;;;;;;;8.93;5.20;;;;;;;20.68;47.54;93870.38;4989327;28;20283;-52
2023/03/07 08:02:12;;;;;;;8.93;6.23;;;;;;;21.32;46.77;93873.31;4988294;28;20573;-49
2023/03/07 08:04:39;;;;;;;9.47;6.10;;;;;;;22.03;46.34;93873.13;4989253;28;20268;-48
2023/03/07 08:07:06;;;;;;;8.90;5.43;;;;;;;22.78;45.50;93876.69;4988619;28;20201;-53
2023/03/07 08:09:35;;;;;;;7.78;5.68;;;;;;;23.52;44.72;93866.22;4989025;28;20197;-51
2023/03/07 08:12:02;;;;;;;10.00;5.57;;;;;;;24.20;44.26;93866.94;4988488;28;20204;-50
2023/03/07 08:14:28;;;;;;;6.60;5.28;;;;;;;24.69;43.16;93862.56;4988556;28;20207;-47
2023/03/07 08:16:55;;;;;;;5.82;4.85;;;;;;;25.25;42.66;93863.13;4985377;28;20197;-49
2023/03/07 08:19:22;;;;;;;8.07;5.35;;;;;;;25.70;41.94;93864.53;4988107;28;20616;-47
2023/03/07 08:21:49;;;;;;;6.28;5.03;;;;;;;25.90;41.24;93870.97;4988888;28;20197;-52
2023/03/07 08:24:16;;;;;;;7.63;4.88;;;;;;;25.95;41.41;93871.81;4988178;28;20276;-51
2023/03/07 08:26:44;;;;;;;7.82;5.50;;;;;;;25.94;41.00;93869.44;4987809;28;20193;-52
2023/03/07 08:29:11;;;;;;;6.72;5.18;;;;;;;25.86;41.65;93862.81;4987314;28;20283;-57
2023/03/07 08:31:38;;;;;;;5.95;4.63;;;;;;;25.67;41.51;93857.19;4985866;28;20646;-52
2023/03/07 08:34:05;;;;;;;6.45;5.38;;;;;;;25.65;41.46;93872.38;4987648;28;20201;-49
2023/03/07 08:36:32;;;;;;;6.70;5.00;;;;;;;25.56;41.49;93866.03;4987687;28;20193;-48
2023/03/07 08:38:59;;;;;;;5.60;4.97;;;;;;;25.56;40.92;93875.69;4987857;28;20251;-51
2023/03/07 08:41:25;;;;;;;5.57;4.53;;;;;;;25.61;40.83;93876.53;4985591;28;20251;-51
2023/03/07 08:43:54;;;;;;;5.55;5.03;;;;;;;25.70;40.31;93875.03;4987684;28;20651;-52
2023/03/07 08:46:22;;;;;;;5.93;4.82;;;;;;;25.86;39.50;93870.69;4991877;28;20189;-47
2023/03/07 08:48:56;;;;;;;5.78;5.15;;;;;;;26.06;39.35;93870.03;4991501;28;20288;-52
2023/03/07 08:51:23;;;;;;;5.13;4.43;;;;;;;26.31;38.68;93869.38;4991806;28;20207;-48
2023/03/07 08:53:50;;;;;;;5.15;4.32;;;;;;;26.52;38.81;93873.69;4991857;28;20223;-51
2023/03/07 08:56:18;;;;;;;8.07;4.88;;;;;;;26.52;38.63;93876.31;4991850;28;20239;-52
2023/03/07 08:58:46;;;;;;;7.32;5.28;;;;;;;26.43;39.35;93875.19;4989425;28;20272;-49
2023/03/07 09:01:14;;;;;;;6.10;4.95;;;;;;;26.44;39.01;93865.53;4985576;28;20204;-49
2023/03/07 09:03:42;;;;;;;7.20;4.65;;;;;;;26.48;38.60;93864.75;4989081;28;20231;-50
2023/03/07 09:06:15;;;;;;;8.85;5.40;;;;;;;26.42;38.66;93855.25;4989613;28;20211;-48
2023/03/07 09:08:42;;;;;;;6.35;4.60;;;;;;;26.52;38.45;93860.56;4988712;28;20201;-46
2023/03/07 09:11:09;;;;;;;6.28;5.15;;;;;;;26.57;38.61;93867.66;4991011;28;20197;-49
2023/03/07 09:13:36;;;;;;;5.43;4.65;;;;;;;26.58;38.16;93864.00;4991382;28;20205;-47
2023/03/07 09:16:04;;;;;;;5.50;4.47;;;;;;;26.58;38.06;93861.38;4988527;28;20189;-46
2023/03/07 09:18:33;;;;;;;5.18;4.20;;;;;;;26.52;38.40;93850.09;4991405;28;20193;-50
2023/03/07 09:21:01;;;;;;;8.55;4.40;;;;;;;26.55;37.99;93861.09;4990872;28;20209;-50
2023/03/07 09:23:28;;;;;;;6.55;4.45;;;;;;;26.51;37.87;93858.19;4990051;28;20208;-48
2023/03/07 09:25:55;;;;;;;5.05;4.38;;;;;;;26.41;37.68;93856.28;4990765;28;20193;-52
2023/03/07 09:28:21;;;;;;;5.32;4.63;;;;;;;26.25;37.89;93847.59;4987097;28;20196;-47
2023/03/07 09:30:48;;;;;;;7.22;4.97;;;;;;;26.11;37.83;93846.47;4990997;28;20193;-48
2023/03/07 09:33:15;;;;;;;7.10;4.00;;;;;;;25.93;38.17;93842.44;4991341;28;20240;-48
2023/03/07 09:35:44;;;;;;;5.78;4.45;;;;;;;25.76;37.92;93836.56;4988804;28;20584;-46
2023/03/07 09:38:10;;;;;;;5.47;4.28;;;;;;;25.58;37.72;93839.56;4991179;28;20196;-51
2023/03/07 09:40:38;;;;;;;6.45;4.95;;;;;;;25.43;37.82;93835.00;4991112;28;20199;-51
2023/03/07 09:43:16;;;;;;;4.68;4.18;;;;;;;25.29;37.81;93837.25;4990066;28;20193;-48
2023/03/07 09:45:58;;;;;;;6.05;3.83;;;;;;;25.14;37.62;93830.09;4990406;28;20209;-50
2023/03/07 09:48:49;;;;;;;5.32;4.03;;;;;;;25.02;38.00;93834.66;4989465;28;20193;-50
2023/03/07 09:51:21;;;;;;;5.63;4.70;;;;;;;24.89;37.93;93821.97;4989695;28;20201;-51
2023/03/07 09:53:53;;;;;;;5.60;4.57;;;;;;;24.78;37.90;93826.31;4989807;28;20271;-50
2023/03/07 09:56:24;;;;;;;7.80;4.55;;;;;;;24.67;37.75;93820.19;4988932;28;20224;-48
2023/03/07 09:58:58;;;;;;;8.73;4.25;;;;;;;24.54;37.94;93812.75;4990538;28;20232;-51
2023/03/07 10:01:29;;;;;;;4.95;4.35;;;;;;;24.42;37.67;93804.25;4986045;28;20201;-53
2023/03/07 10:04:00;;;;;;;4.22;3.63;;;;;;;24.29;37.49;93800.94;4987675;28;20219;-53
2023/03/07 10:06:33;;;;;;;7.93;3.97;;;;;;;24.16;37.68;93797.91;4988143;28;20259;-47
2023/03/07 10:09:01;;;;;;;4.07;3.67;;;;;;;24.04;37.75;93795.41;4987888;28;20741;-46
2023/03/07 10:11:49;;;;;;;5.15;3.90;;;;;;;23.89;37.47;93792.63;4987184;28;20228;-51
2023/03/07 10:14:30;;;;;;;4.97;3.80;;;;;;;23.71;37.48;93793.72;4987175;28;20189;-50
2023/03/07 10:17:11;;;;;;;6.30;3.95;;;;;;;23.57;37.40;93787.19;4984894;28;20200;-47
2023/03/07 10:19:48;;;;;;;4.30;3.80;;;;;;;23.43;37.44;93789.34;4986582;28;20200;-48
2023/03/07 10:22:26;;;;;;;7.35;3.90;;;;;;;23.29;37.50;93784.47;4987300;28;20259;-47
2023/03/07 10:25:10;;;;;;;5.13;3.60;;;;;;;23.20;37.53;93787.72;4985495;28;20210;-49
2023/03/07 10:27:37;;;;;;;5.32;3.83;;;;;;;23.11;37.45;93773.50;4985827;28;20201;-47
2023/03/07 10:30:14;;;;;;;5.22;3.35;;;;;;;22.95;37.61;93772.47;4987562;28;20247;-48
2023/03/07 10:32:44;;;;;;;6.40;3.90;;;;;;;22.82;37.53;93775.34;4987522;28;20189;-47
2023/03/07 10:35:17;;;;;;;5.07;3.60;;;;;;;22.71;37.52;93775.19;4985908;28;20310;-48
2023/03/07 10:37:50;;;;;;;5.53;3.60;;;;;;;22.70;37.49;93772.78;4984753;28;20196;-47
2023/03/07 10:40:25;;;;;;;8.75;3.90;;;;;;;22.72;37.55;93766.34;4987122;28;20212;-48
2023/03/07 10:42:52;;;;;;;6.28;4.25;;;;;;;22.77;37.42;93755.19;4986428;28;20228;-47
2023/03/07 10:45:19;;;;;;;7.22;3.72;;;;;;;22.83;37.67;93759.47;4987319;28;20628;-45
2023/03/07 10:47:46;;;;;;;5.65;3.50;;;;;;;22.90;37.39;93743.69;4986608;28;20570;-47
2023/03/07 10:50:24;;;;;;;4.68;3.55;;;;;;;22.93;37.32;93738.81;4986961;28;20200;-48
2023/03/07 10:52:55;;;;;;;7.32;3.25;;;;;;;22.90;37.58;93738.50;4985300;28;20208;-49
2023/03/07 10:55:35;;;;;;;6.13;3.17;;;;;;;22.76;37.34;93733.56;4985120;28;20229;-46
2023/03/07 10:58:14;;;;;;;5.43;3.15;;;;;;;22.79;37.50;93734.88;4987864;28;20212;-45
2023/03/07 11:00:43;;;;;;;3.47;2.72;;;;;;;22.83;37.42;93727.38;4989638;28;20669;-49
2023/03/07 11:03:23;;;;;;;6.13;3.13;;;;;;;22.80;37.31;93710.41;4989440;28;20561;-51
2023/03/07 11:05:50;;;;;;;3.72;3.22;;;;;;;22.81;37.50;93700.78;4987079;28;20836;-49
2023/03/07 11:08:27;;;;;;;4.80;3.40;;;;;;;22.95;37.08;93708.06;4988078;28;20204;-50
2023/03/07 11:10:54;;;;;;;3.45;3.03;;;;;;;22.99;37.36;93705.78;4988999;28;20243;-49
2023/03/07 11:13:22;;;;;;;3.17;2.83;;;;;;;22.99;37.09;93708.38;4988573;28;20215;-46
2023/03/07 11:15:49;;;;;;;3.30;3.00;;;;;;;22.89;37.02;93701.16;4989242;28;20555;-48
2023/03/07 11:18:30;;;;;;;3.50;3.20;;;;;;;22.78;37.30;93696.81;4988796;28;20897;-46
2023/03/07 11:20:58;;;;;;;3.92;2.95;;;;;;;22.71;37.18;93691.78;4987160;28;20197;-46
2023/03/07 11:23:29;;;;;;;4.22;3.17;;;;;;;22.56;36.90;93685.53;4988345;28;20212;-47
2023/03/07 11:25:58;;;;;;;3.03;2.58;;;;;;;22.50;36.96;93685.44;4989114;28;20212;-52
2023/03/07 11:28:28;;;;;;;4.75;3.08;;;;;;;22.42;37.15;93680.63;4988737;28;20216;-47
2023/03/07 11:31:04;;;;;;;3.08;2.85;;;;;;;22.30;37.34;93672.06;4988852;28;20177;-47
2023/03/07 11:33:44;;;;;;;2.83;2.63;;;;;;;22.28;37.20;93674.94;4987852;28;20823;-48
2023/03/07 11:36:15;;;;;;;4.03;3.15;;;;;;;22.27;37.19;93667.31;4988950;28;20193;-47
2023/03/07 11:38:55;;;;;;;3.17;2.65;;;;;;;22.33;37.01;93676.81;4986184;28;20299;-52
2023/03/07 11:41:27;;;;;;;3.50;2.90;;;;;;;22.35;37.18;93672.16;4987503;28;20427;-48